Terminal Aerodrome Forecast
Issued by NWS

Home | Current Version | Previous Version | Text Only | Print | Product List | Glossary On
Versions: 1 2 3 4 5 6 7 8 9 10 11 12 13 14 15 16 17 18 19 20
000
FTUS41 KPBZ 220500
TAFMGW
TAF
KMGW 220540Z 2206/2306 29006KT P6SM SCT035
     FM220700 29004KT P6SM BKN020
     FM221300 30005KT P6SM BKN035
     FM230300 VRB04KT P6SM SKC=

USA.gov is the U.S. government's official web portal to all federal, state and local government web resources and services.